Amity, North Carolina
Current Conditions -  °F | °C
As of 3:55 PM on Sunday 23 Nov 2014 (Local Time) from KRUQ Reporting Station
Moderate Rain Moderate Rain  
Wind Chill: 48°   Ceiling: 300
Heat Index: 48°   Visibility: 1.2mi
Dew Point: 48°   Wind: 3mph
Humidity: 100%   Direction: 60°ENE
Pressure: 29.95"   Gusts: NA
Location:  35.7427°N, 80.712°W
Report Text: KRUQ 232055Z AUTO 06003KT 1 1/4SM RA OVC003 09/09 A2995 RMK AO2 P0006 60012 T00900090
Loading
Personal Weather Stations






























Interactive Weather Map New forecast layout! Learn more

10-Day Weather Forecast

Advertisements
Track Severe Weather on mobile